Date,TemperatureHighF,TemperatureAvgF,TemperatureLowF,DewpointHighF,DewpointAvgF,DewpointLowF,HumidityHigh,HumidityAvg,HumidityLow,PressureMaxIn,PressureMinIn,WindSpeedMaxMPH,WindSpeedAvgMPH,GustSpeedMaxMPH,PrecipitationSumIn
2013-1-1,33.3,25.6,19.6,17.2,9.6,4.8,60,50,41,30.24,30.05,20,8,28,0.00
2013-1-2,34.2,24.9,18.1,5.7,1.1,-2.7,50,36,23,30.33,30.22,13,7,20,0.00
2013-1-3,49.4,36.8,24.4,14.7,4.9,-4.8,34,26,20,30.29,29.98,18,6,27,0.00
2013-1-4,47.3,41.1,31.1,12.6,6.4,0.4,41,24,17,29.99,29.86,19,10,28,0.00
2013-1-5,43.1,34.9,30.5,12.3,9.5,5.4,40,35,23,30.12,29.95,22,12,26,0.00
2013-1-6,45.0,40.1,36.2,21.4,13.7,4.6,54,35,19,29.95,29.69,24,16,41,0.00
2013-1-7,36.5,34.1,31.5,18.3,14.3,11.2,57,44,39,29.77,29.49,30,20,42,0.00
2013-1-8,41.6,36.6,32.7,21.7,16.0,12.0,54,43,32,29.89,29.58,30,17,41,0.00
2013-1-9,47.9,43.8,37.8,24.1,21.4,16.6,54,41,30,29.89,29.47,33,21,49,0.02
2013-1-10,47.1,35.3,14.8,27.4,20.9,10.2,83,59,29,29.47,29.24,18,6,25,0.11
2013-1-11,14.6,9.2,3.8,10.1,3.2,-1.8,82,76,69,30.18,29.45,5,0,6,0.09
2013-1-12,15.9,7.1,2.2,5.9,-0.2,-4.4,76,72,60,30.25,30.16,4,1,7,0.00
2013-1-13,16.2,8.1,1.0,1.4,-3.3,-7.3,75,60,45,30.32,30.24,12,4,20,0.00
2013-1-14,17.0,12.0,7.3,0.1,-4.6,-8.7,55,47,41,30.27,30.06,26,17,39,0.00
2013-1-15,26.8,21.1,13.4,10.0,5.0,-2.8,56,49,46,30.27,30.15,27,23,41,0.00
2013-1-16,41.1,34.2,24.9,14.3,11.3,8.1,49,39,32,30.26,30.17,26,17,39,0.00
2013-1-17,47.1,41.7,34.9,15.1,13.1,11.5,40,31,25,30.25,29.96,25,18,32,0.00
2013-1-18,47.2,42.1,38.2,14.2,11.8,9.7,32,29,23,29.96,29.70,29,21,52,0.00
2013-1-19,44.0,40.2,35.7,12.1,9.5,6.0,32,28,21,30.07,29.88,27,19,37,0.00
2013-1-20,43.5,28.7,21.1,18.2,14.4,9.7,77,57,29,30.26,30.00,17,4,25,0.00
2013-1-21,50.0,44.6,39.6,17.5,11.4,6.8,36,26,20,30.14,29.78,30,16,41,0.00
2013-1-22,50.3,43.1,37.5,11.1,8.7,6.0,29,24,17,29.91,29.78,31,20,48,0.00
2013-1-23,50.4,47.9,45.0,12.8,9.2,5.9,24,21,17,29.90,29.70,24,18,34,0.00
2013-1-24,45.5,42.6,40.3,24.6,22.8,20.9,49,45,40,29.91,29.67,25,19,37,0.00
2013-1-25,45.9,43.0,40.0,27.2,24.5,20.5,51,48,45,29.92,29.72,27,19,41,0.00
2013-1-26,50.4,46.3,43.3,28.7,27.3,25.6,52,47,40,29.75,29.44,19,10,35,0.00
2013-1-27,46.1,30.3,22.1,27.7,24.1,17.8,92,79,45,29.72,29.44,10,1,14,0.25
2013-1-28,30.6,24.7,19.3,18.7,10.9,4.5,85,57,39,29.80,29.68,17,6,34,0.00
2013-1-29,27.7,20.0,10.4,13.1,7.0,3.6,75,57,44,30.08,29.65,18,6,29,0.00
2013-1-30,37.4,32.3,23.1,26.1,18.9,6.3,85,58,44,29.93,29.79,16,9,22,0.00
2013-1-31,40.4,35.2,20.2,25.2,21.6,14.7,86,58,47,29.98,29.86,21,10,29,0.00
2013-2-1,41.8,37.9,33.3,26.6,19.3,14.2,75,48,35,30.08,29.83,17,11,23,0.00
2013-2-2,40.4,37.4,33.9,20.6,17.7,14.5,48,45,40,30.19,30.06,29,18,44,0.00
2013-2-3,45.7,39.7,33.6,18.3,15.8,13.4,50,38,30,30.05,29.77,22,16,33,0.00
2013-2-4,41.3,38.2,34.9,21.4,18.4,15.4,48,44,41,29.78,29.67,23,18,32,0.00
2013-2-5,44.3,41.0,38.2,24.0,21.5,18.9,54,46,40,29.80,29.56,21,15,33,0.00
2013-2-6,42.3,37.4,31.7,21.0,16.2,11.2,60,42,31,29.93,29.58,19,10,31,0.00
2013-2-7,40.5,35.6,30.4,13.5,10.5,7.4,48,36,27,29.95,29.76,20,14,29,0.00
2013-2-8,44.6,34.5,28.2,16.7,11.6,6.4,55,39,27,29.80,29.71,11,2,15,0.00
2013-2-9,39.3,29.9,24.5,23.9,18.5,14.0,85,64,43,29.84,29.64,6,1,8,0.08
2013-2-10,26.0,22.1,16.7,20.4,8.7,-2.0,85,58,35,30.10,29.84,19,5,23,0.07
2013-2-11,29.9,23.9,15.9,9.9,3.5,-3.0,47,41,35,30.09,29.94,21,14,28,0.00
2013-2-12,38.4,31.4,22.5,17.6,12.1,5.1,49,44,38,30.03,29.84,26,19,40,0.00
2013-2-13,43.2,36.5,32.0,23.4,18.9,15.5,67,49,37,29.94,29.75,24,12,35,0.00
2013-2-14,33.7,24.0,18.9,22.0,17.6,14.7,85,77,51,30.30,29.94,9,1,16,0.34
2013-2-15,41.2,35.3,27.1,19.8,17.3,14.3,66,48,38,30.35,30.06,21,12,29,0.00
2013-2-16,41.0,38.6,35.7,22.0,19.9,18.2,51,47,44,30.08,29.59,28,21,37,0.00
2013-2-17,38.9,32.5,27.8,27.0,16.7,10.5,83,53,39,29.86,29.50,22,8,31,0.00
2013-2-18,36.8,26.2,20.0,19.8,15.2,9.2,81,63,47,30.00,29.86,12,2,13,0.00
2013-2-19,39.0,24.1,15.7,19.8,13.8,9.0,79,66,43,29.90,29.69,7,1,13,0.00
2013-2-20,37.3,25.5,18.2,20.9,16.8,12.5,84,70,49,29.83,29.71,3,1,5,0.00
2013-2-21,34.2,24.8,17.2,21.2,15.6,6.7,92,69,43,29.89,29.83,14,2,18,0.00
2013-2-22,33.4,29.6,26.1,16.1,9.4,6.9,52,42,36,29.89,29.59,28,16,42,0.00
2013-2-23,35.2,31.0,26.6,22.5,13.5,7.3,63,48,40,29.91,29.47,25,12,35,0.00
2013-2-24,38.2,29.7,21.2,12.6,8.9,6.2,57,42,27,30.09,29.91,22,7,27,0.00
2013-2-25,32.7,29.4,24.8,12.6,9.5,6.3,46,43,39,29.93,29.72,26,19,40,0.00
2013-2-26,37.1,29.9,26.3,10.8,7.2,5.2,46,38,29,30.13,29.84,14,8,21,0.00
2013-2-27,35.6,29.9,23.6,12.8,8.9,5.2,46,41,35,30.16,30.10,20,15,29,0.00
2013-2-28,39.6,33.2,26.7,16.7,11.6,5.3,48,40,33,30.21,30.11,22,16,37,0.00
2013-3-1,50.9,44.0,34.4,27.0,23.6,15.8,49,44,39,30.18,30.07,24,14,35,0.00
2013-3-2,51.1,46.2,42.0,28.4,25.8,23.8,49,45,41,30.10,29.68,22,17,40,0.00
2013-3-3,48.4,38.6,22.0,28.7,21.3,4.5,80,50,35,29.76,29.28,36,13,48,0.00
2013-3-4,33.1,21.9,12.0,10.3,6.1,2.8,71,51,36,30.29,29.75,21,8,27,0.00
2013-3-5,40.2,27.9,9.9,13.4,7.9,3.0,75,45,26,30.27,29.95,20,10,29,0.00
2013-3-6,48.2,33.2,19.6,31.0,20.3,10.7,79,59,40,29.95,29.62,19,7,26,0.02
2013-3-7,43.8,37.8,33.2,23.4,14.6,12.3,53,39,28,29.89,29.67,19,9,30,0.01
2013-3-8,49.0,34.9,27.5,30.6,24.4,13.3,88,67,39,29.86,29.69,12,2,13,0.01
2013-3-9,42.4,33.6,25.1,27.4,14.9,9.7,83,47,34,30.15,29.79,15,5,22,0.00
2013-3-10,53.4,42.3,31.2,19.8,13.1,6.9,44,31,20,30.12,29.81,20,11,39,0.00
2013-3-11,43.0,35.9,22.4,23.7,17.0,8.6,82,49,25,30.15,29.79,21,8,43,0.03
2013-3-12,45.3,32.1,15.6,27.6,18.5,10.2,82,60,39,30.18,30.01,21,10,41,0.00
2013-3-13,56.6,50.5,45.4,29.1,27.4,25.9,49,41,31,30.02,29.88,22,16,40,0.00
2013-3-14,63.5,55.5,51.2,30.8,28.2,24.3,45,36,26,29.93,29.64,20,13,39,0.00
2013-3-15,61.1,53.0,38.6,29.4,25.5,19.3,61,35,21,29.74,29.58,20,10,43,0.00
2013-3-16,48.8,42.4,34.4,28.7,21.6,15.3,69,45,28,29.74,29.44,17,4,30,0.00
2013-3-17,43.8,32.5,26.3,29.0,16.6,4.3,83,53,30,29.78,29.24,23,11,49,0.00
2013-3-18,33.9,27.8,23.6,19.9,9.9,3.9,78,48,29,29.90,29.77,18,9,28,0.00
2013-3-19,45.0,31.5,24.3,18.8,9.4,-1.4,77,43,17,30.16,29.89,15,6,27,0.00
2013-3-20,47.0,40.9,24.1,28.6,17.9,0.2,61,41,20,30.08,29.36,27,16,49,0.00
2013-3-21,46.3,33.5,25.6,29.2,18.3,6.8,83,54,41,29.77,29.33,24,13,40,0.00
2013-3-22,29.9,23.2,17.3,17.7,8.0,1.0,84,55,34,30.11,29.78,13,4,23,0.01
2013-3-23,28.5,19.0,10.0,17.7,8.7,3.6,81,65,38,30.28,30.11,13,2,25,0.00
2013-3-24,35.1,22.2,13.1,7.8,3.3,-1.3,72,45,26,30.28,30.24,11,4,24,0.00
2013-3-25,45.2,30.2,17.2,9.9,2.6,-1.3,49,32,20,30.24,29.96,17,7,30,0.00
2013-3-26,49.9,38.6,32.7,22.4,14.5,0.7,52,37,24,29.97,29.78,16,7,30,0.00
2013-3-27,50.6,42.2,33.4,26.6,21.4,16.9,52,44,33,29.87,29.80,17,9,31,0.00
2013-3-28,57.5,47.9,38.8,25.6,23.4,19.6,51,39,27,29.89,29.78,16,7,26,0.00
2013-3-29,53.9,45.5,39.0,38.1,27.9,18.8,85,53,30,29.96,29.82,19,5,26,0.17
2013-3-30,53.7,45.3,36.9,34.6,26.0,20.3,84,49,32,30.05,29.89,15,7,27,0.03
2013-3-31,62.6,50.0,35.5,28.8,23.8,20.1,56,36,25,29.89,29.78,19,7,34,0.00
2013-4-1,58.2,42.3,29.0,26.5,22.0,18.4,73,47,26,29.93,29.86,5,2,8,0.00
2013-4-2,70.0,48.6,31.3,29.5,22.3,18.4,61,39,20,29.91,29.72,5,2,10,0.00
2013-4-3,57.9,52.2,40.8,30.6,26.4,21.0,59,37,25,29.83,29.71,19,6,20,0.00
2013-4-4,63.2,50.5,36.3,36.2,31.3,26.6,68,49,33,29.82,29.53,15,4,19,0.00
2013-4-5,55.5,49.4,41.6,36.4,33.0,28.7,80,54,43,29.62,29.41,17,10,23,0.17
2013-4-6,53.8,47.0,42.0,33.5,28.8,24.7,71,49,38,29.66,29.55,27,10,35,0.00
2013-4-7,51.2,41.6,34.1,34.4,31.4,27.4,86,69,41,29.58,29.34,17,6,23,0.11
2013-4-8,36.7,22.0,14.9,32.9,17.6,10.4,88,83,75,30.26,29.48,4,1,11,0.22
2013-4-9,31.6,21.9,13.8,19.8,13.6,8.7,84,71,56,30.45,30.32,2,1,5,0.10
2013-4-10,48.8,32.9,13.7,33.4,21.7,8.6,83,64,49,30.31,29.72,9,2,13,0.02
2013-4-11,53.3,43.5,34.4,34.1,26.4,18.0,83,54,27,29.76,29.63,15,6,24,0.08
2013-4-12,52.8,39.1,31.3,29.2,21.8,14.6,82,51,34,29.86,29.48,11,4,16,0.00
2013-4-13,47.3,38.2,29.8,35.5,24.6,6.9,88,60,31,29.48,29.15,22,11,32,0.13
2013-4-14,37.7,30.6,23.5,21.5,13.5,8.0,85,50,35,29.81,29.47,17,8,29,0.01
2013-4-15,30.9,23.7,17.1,23.4,16.2,12.6,86,73,56,30.09,29.80,5,1,8,0.01
2013-4-16,29.9,22.5,18.4,20.9,16.3,12.5,84,77,64,30.25,30.04,3,0,5,0.24
2013-4-17,31.3,22.8,15.4,21.0,15.4,9.7,92,74,51,30.32,30.24,4,1,6,0.03
2013-4-18,46.6,33.9,17.9,21.2,15.2,9.2,80,48,33,30.27,30.01,14,6,20,0.00
2013-4-19,47.3,42.1,39.3,30.0,22.2,17.0,59,45,38,30.01,29.62,19,12,28,0.00
2013-4-20,52.5,45.4,38.7,31.4,26.7,21.5,74,48,34,29.77,29.64,19,9,31,0.00
2013-4-21,41.0,31.2,21.8,30.8,23.9,17.9,86,76,47,30.13,29.77,9,2,13,0.40
2013-4-22,34.9,22.7,16.2,20.8,15.6,7.8,94,75,50,30.39,30.13,5,1,6,0.24
2013-4-23,44.9,29.1,14.7,24.0,12.7,3.8,72,52,34,30.36,30.10,14,4,20,0.00
2013-4-24,53.4,41.5,30.3,21.6,17.8,14.6,59,40,26,30.14,29.76,19,6,29,0.00
2013-4-25,61.1,51.2,44.1,23.9,19.0,15.3,39,28,21,29.80,29.58,20,11,33,0.00
2013-4-26,65.6,54.9,42.9,27.2,23.8,20.6,44,31,20,29.90,29.79,14,8,26,0.00
2013-4-27,67.5,60.1,53.7,30.2,26.9,24.8,34,28,23,29.86,29.53,18,11,31,0.00
2013-4-28,61.1,54.7,49.5,34.1,30.2,24.2,54,39,29,29.65,29.48,18,9,25,0.00
2013-4-29,53.4,45.8,35.8,35.2,28.0,21.4,80,52,33,29.55,29.21,24,14,39,0.13
2013-4-30,39.3,33.0,26.1,25.6,17.8,7.3,87,57,27,30.15,29.55,14,5,25,0.29
2013-5-1,41.6,32.1,24.3,27.9,22.3,16.5,88,69,40,30.55,30.15,7,2,8,0.08
2013-5-2,60.1,46.1,31.0,26.7,18.8,13.5,58,35,21,30.55,30.09,16,7,23,0.00
2013-5-3,57.4,49.8,38.7,37.9,25.4,14.7,84,42,24,30.09,29.87,18,7,23,0.09
2013-5-4,51.2,40.2,34.8,42.6,35.8,31.9,91,85,66,30.13,29.98,5,1,5,0.66
2013-5-5,63.5,48.0,39.2,42.3,37.2,33.2,91,69,39,30.11,29.83,7,1,7,0.00
2013-5-6,71.2,54.2,38.6,42.5,35.2,31.0,78,52,30,29.84,29.63,6,2,9,0.00
2013-5-7,76.2,60.6,49.9,41.5,34.8,30.6,63,40,21,29.71,29.53,16,4,21,0.00
2013-5-8,71.7,56.8,43.1,43.6,38.5,33.9,82,53,33,29.85,29.71,7,2,8,0.01
2013-5-9,71.4,53.2,44.5,42.7,36.3,31.6,68,54,30,29.92,29.82,23,5,29,0.08
2013-5-10,70.1,57.9,47.6,42.9,35.6,30.6,58,44,32,30.09,29.92,18,5,26,0.00
2013-5-11,72.4,56.5,38.4,39.1,33.5,29.1,74,45,23,30.11,29.87,13,3,14,0.00
2013-5-12,80.3,70.0,59.0,40.2,37.0,33.8,40,31,20,29.88,29.59,14,8,21,0.00
2013-5-13,82.0,74.1,67.3,41.1,37.6,33.8,33,27,21,29.62,29.29,16,10,26,0.00
2013-5-14,74.2,63.0,51.7,46.6,40.0,30.4,63,44,25,29.65,29.34,15,4,20,0.00
2013-5-15,72.3,57.6,42.9,43.3,35.0,29.1,75,45,28,29.73,29.54,23,3,25,0.03
2013-5-16,62.3,51.9,45.1,49.5,43.9,39.1,85,75,54,29.63,29.51,34,2,34,0.24
2013-5-17,56.9,50.3,45.7,49.1,44.8,42.1,90,82,66,29.66,29.58,8,1,8,0.21
2013-5-18,58.9,48.4,45.8,47.8,44.0,41.9,92,85,56,29.74,29.64,12,1,12,0.58
2013-5-19,46.9,44.1,42.3,43.4,40.5,38.1,90,87,84,29.96,29.73,10,2,10,1.25
2013-5-20,53.2,45.7,43.2,43.8,41.0,37.9,91,84,65,30.03,29.93,23,3,23,0.55
2013-5-21,66.3,51.8,38.6,42.3,36.7,29.4,87,60,33,29.97,29.66,12,2,12,0.00
2013-5-22,49.2,44.7,40.5,44.9,40.0,36.3,92,84,70,29.73,29.63,12,1,12,0.25
2013-5-23,55.6,48.5,44.2,50.6,45.2,42.1,94,88,79,29.71,29.54,12,1,12,0.31
2013-5-24,62.9,52.8,42.4,45.4,28.8,21.4,90,43,22,29.72,29.54,30,9,30,0.01
2013-5-25,65.8,54.7,45.1,43.9,35.4,23.8,66,48,38,29.71,29.59,15,2,15,0.00
2013-5-26,67.7,54.7,42.9,48.4,40.0,34.8,79,59,40,29.73,29.56,26,2,26,0.00
2013-5-27,63.4,53.6,43.2,41.2,36.4,29.5,81,54,34,29.63,29.50,38,5,38,0.01
2013-5-28,65.5,54.6,46.5,44.2,38.0,29.5,85,55,39,29.53,29.38,23,5,23,0.26
2013-5-29,48.7,46.4,44.0,45.2,42.7,39.8,91,87,76,29.50,29.43,13,1,13,0.80
2013-5-30,54.7,51.1,46.6,40.8,34.6,29.8,79,54,42,29.65,29.44,33,8,33,0.01
2013-5-31,54.1,49.6,46.7,36.4,31.5,27.1,67,50,44,30.04,29.64,33,8,33,0.00
2013-6-1,69.0,55.3,45.0,46.4,40.3,35.3,73,58,43,30.06,29.79,10,2,10,0.00
2013-6-2,69.7,56.0,46.0,51.0,44.7,38.8,83,67,48,29.79,29.39,27,2,27,0.16
2013-6-3,58.5,51.1,44.5,39.8,34.6,29.7,75,54,39,29.79,29.44,37,11,37,0.02
2013-6-4,55.6,46.3,41.8,42.7,37.8,35.5,85,72,56,30.08,29.79,17,1,17,0.01
2013-6-5,74.1,54.4,35.8,46.4,39.5,31.4,89,61,36,30.06,29.77,8,1,8,0.00
2013-6-6,77.2,64.1,51.5,50.5,43.4,35.4,71,48,35,29.79,29.68,14,3,14,0.00
2013-6-7,78.5,67.0,52.5,54.7,46.3,39.8,73,48,35,29.69,29.36,24,3,24,0.03
2013-6-8,79.0,65.6,53.4,47.8,37.6,27.5,68,38,19,29.60,29.44,32,6,32,0.04
2013-6-9,83.6,67.4,51.9,51.5,43.4,34.8,63,43,27,29.61,29.34,25,3,25,0.00
2013-6-10,76.5,61.1,50.0,52.2,45.6,37.3,87,59,40,29.55,29.41,28,2,28,0.38
2013-6-11,73.5,59.9,50.8,59.5,51.4,45.3,88,74,49,29.72,29.47,35,2,35,0.22
2013-6-12,64.5,54.5,48.0,54.0,48.0,42.2,93,80,49,29.79,29.66,31,3,31,0.12
2013-6-13,78.5,63.6,51.3,58.9,45.8,36.9,84,54,36,29.70,29.40,38,8,38,0.29
2013-6-14,59.9,53.6,50.7,37.2,32.2,25.5,58,44,35,29.84,29.54,50,13,50,0.01
2013-6-15,74.9,61.6,49.5,45.9,37.1,26.3,53,41,32,29.85,29.67,26,5,26,0.00
2013-6-16,75.8,60.1,47.7,49.8,42.3,31.9,78,53,38,29.85,29.71,24,2,24,0.11
2013-6-17,76.9,61.9,47.2,56.6,49.4,41.7,86,65,46,29.86,29.67,8,2,8,0.00
2013-6-18,86.9,67.2,50.7,58.8,47.5,38.3,86,55,22,29.67,29.35,19,2,19,0.00
2013-6-19,75.6,65.3,53.8,56.5,42.1,28.0,61,43,30,29.35,29.10,51,7,51,0.02
2013-6-20,65.8,56.4,49.1,35.3,28.6,24.8,49,35,22,29.74,29.34,35,11,35,0.00
2013-6-21,68.1,53.7,43.5,45.4,38.6,31.0,70,57,40,29.79,29.71,17,2,17,0.00
2013-6-22,62.2,53.3,44.5,47.1,40.0,34.9,85,62,38,29.79,29.64,32,5,32,0.06
2013-6-23,74.1,60.4,45.9,48.0,41.8,34.0,71,51,39,29.76,29.47,19,3,19,0.00
2013-6-24,80.9,64.1,50.4,53.8,44.7,35.3,70,50,35,29.47,29.28,31,3,31,0.00
2013-6-25,72.2,64.4,58.4,47.3,43.0,38.7,57,46,32,29.53,29.37,32,12,32,0.00
2013-6-26,76.5,67.3,59.0,56.0,48.1,43.6,73,51,34,29.76,29.52,23,8,23,0.02
2013-6-27,90.5,71.1,54.1,58.4,52.0,46.8,80,54,29,29.86,29.76,8,2,8,0.00
2013-6-28,91.7,73.6,56.0,57.3,53.0,48.8,79,51,29,29.89,29.75,8,2,8,0.00
2013-6-29,88.5,69.6,58.4,58.3,53.4,49.6,82,58,35,29.83,29.66,34,2,34,0.05
2013-6-30,90.5,71.9,55.1,60.5,54.4,47.7,79,57,33,29.79,29.71,9,2,9,0.00
2013-7-1,89.2,74.9,61.9,60.1,54.8,50.7,70,51,34,29.82,29.74,9,2,9,0.00
2013-7-2,96.3,79.4,61.2,56.0,51.3,46.5,67,41,22,29.79,29.56,9,2,9,0.00
2013-7-3,92.1,81.9,74.8,53.0,49.0,45.8,44,32,23,29.56,29.41,36,6,36,0.00
2013-7-4,91.1,75.6,63.7,60.5,52.5,46.1,61,45,33,29.50,29.33,23,3,23,0.00
2013-7-5,73.9,69.7,61.1,60.1,50.5,44.3,76,52,36,29.46,29.32,36,6,36,0.13
2013-7-6,81.8,66.8,59.0,56.0,50.7,45.1,74,57,38,29.62,29.45,17,3,17,0.01
2013-7-7,77.9,64.1,52.3,59.6,50.4,43.3,84,63,35,29.67,29.54,34,5,34,0.19
2013-7-8,87.9,70.6,61.1,59.2,49.4,41.0,70,49,23,29.67,29.46,33,6,39,0.00
2013-7-9,87.4,70.0,55.4,53.5,50.8,48.0,81,54,29,29.80,29.67,11,2,11,0.00
2013-7-10,95.4,74.1,54.7,51.5,45.3,35.2,73,42,14,29.77,29.50,16,2,16,0.00
2013-7-11,92.2,76.3,64.9,50.2,42.7,36.0,49,32,19,29.50,29.32,41,8,41,0.00
2013-7-12,86.2,74.9,66.3,47.2,42.8,35.8,48,33,18,29.51,29.42,24,8,24,0.00
2013-7-13,82.1,68.7,56.2,60.8,49.4,40.6,84,54,27,29.81,29.46,26,3,26,0.20
2013-7-14,82.2,67.2,56.0,57.8,52.2,48.9,84,61,35,29.85,29.71,12,2,12,0.00
2013-7-15,92.8,75.9,58.5,50.8,44.8,37.9,63,36,18,29.71,29.48,15,3,16,0.00
2013-7-16,71.1,61.2,56.5,55.5,48.8,41.3,81,65,36,29.90,29.55,17,1,17,0.04
2013-7-17,82.7,65.4,55.0,61.9,53.5,49.3,83,67,44,29.91,29.73,30,3,30,0.21
2013-7-18,89.4,73.8,59.9,56.8,49.7,38.5,73,46,25,29.80,29.65,17,2,17,0.00
2013-7-19,92.0,73.2,55.3,49.9,41.5,33.0,65,35,16,29.75,29.56,24,3,24,0.00
2013-7-20,92.0,72.9,56.9,48.4,39.1,29.2,53,32,13,29.66,29.46,10,2,10,0.00
2013-7-21,91.5,76.0,61.3,41.0,34.1,29.0,37,23,13,29.50,29.39,28,4,28,0.00
2013-7-22,95.5,74.8,56.9,47.8,38.0,27.2,51,30,10,29.60,29.42,24,3,24,0.00
2013-7-23,91.7,74.8,59.1,47.4,40.3,32.0,46,31,13,29.73,29.60,16,2,16,0.00
2013-7-24,93.0,76.3,60.5,53.3,46.7,33.7,59,38,22,29.73,29.50,10,2,10,0.00
2013-7-25,87.7,71.3,56.2,53.1,49.6,40.9,74,49,30,29.81,29.62,13,2,13,0.00
2013-7-26,91.4,70.8,53.4,54.7,50.4,47.0,81,53,26,29.85,29.65,10,2,10,0.00
2013-7-27,87.6,66.9,57.1,53.8,48.5,43.4,81,54,24,29.71,29.51,23,3,23,0.12
2013-7-28,75.3,65.7,58.4,59.3,49.4,43.3,79,56,41,29.60,29.48,22,4,22,0.21
2013-7-29,71.3,60.7,53.9,53.5,50.0,43.1,81,68,44,29.75,29.55,27,2,27,0.08
2013-7-30,73.7,62.9,53.9,56.6,48.4,42.2,79,60,44,29.93,29.72,30,5,30,0.18
2013-7-31,86.9,64.7,49.6,54.4,48.2,42.6,83,59,27,29.97,29.77,32,3,32,0.18
2013-8-1,77.8,66.6,58.8,59.3,52.2,47.0,74,60,45,29.78,29.51,15,2,15,0.08
2013-8-2,73.9,63.6,54.2,55.8,52.7,48.5,88,69,52,29.76,29.57,9,2,12,0.04
2013-8-3,78.7,65.4,54.5,56.7,53.1,49.4,87,66,45,29.78,29.68,9,1,9,0.00
2013-8-4,83.6,68.9,55.5,55.3,51.0,46.8,81,56,32,29.77,29.61,9,2,9,0.00
2013-8-5,87.4,69.2,57.1,50.1,46.4,39.7,74,47,25,29.69,29.51,31,3,31,0.01
2013-8-6,81.9,67.9,53.2,47.5,42.7,37.8,68,43,22,29.72,29.60,32,5,32,0.00
2013-8-7,88.2,69.8,53.1,48.7,43.2,33.0,65,42,15,29.73,29.56,15,2,15,0.00
2013-8-8,83.6,67.9,54.7,52.4,47.4,41.3,66,49,32,29.74,29.61,14,2,14,0.00
2013-8-9,73.3,63.5,56.3,54.9,50.4,47.1,73,63,49,29.78,29.73,15,2,15,0.01
2013-8-10,81.6,64.4,52.1,57.1,47.1,41.8,79,56,32,29.83,29.70,22,3,22,0.10
2013-8-11,86.9,67.5,56.4,51.6,43.4,39.3,58,43,27,29.81,29.69,36,3,36,0.06
2013-8-12,87.7,68.3,54.9,49.8,43.2,38.2,58,42,26,29.81,29.68,30,3,30,0.00
2013-8-13,83.0,66.6,55.4,53.7,44.4,39.0,64,46,32,29.82,29.72,31,4,31,0.00
2013-8-14,87.8,70.6,55.4,47.2,41.2,37.0,57,37,18,29.78,29.63,16,2,16,0.00
2013-8-15,93.4,74.2,58.0,48.8,42.5,36.9,49,34,21,29.70,29.57,15,2,15,0.00
2013-8-16,93.3,79.9,62.9,40.8,34.3,27.9,36,21,12,29.61,29.48,23,5,23,0.00
2013-8-17,93.3,79.7,67.0,48.2,39.1,30.0,38,24,15,29.57,29.46,16,3,16,0.00
2013-8-18,89.8,75.2,61.4,50.5,44.1,35.6,44,34,24,29.64,29.49,9,2,9,0.00
2013-8-19,96.9,78.7,64.0,49.9,42.6,37.2,41,29,16,29.62,29.43,14,3,14,0.00
2013-8-20,90.4,76.2,62.6,45.1,39.6,33.8,41,28,19,29.56,29.46,11,2,11,0.00
2013-8-21,87.3,71.5,60.6,45.6,40.4,36.2,46,33,21,29.75,29.56,12,2,12,0.00
2013-8-22,90.2,72.3,55.8,52.0,47.2,41.7,63,43,27,29.75,29.55,19,2,19,0.00
2013-8-23,86.0,73.4,60.9,54.3,48.1,44.0,74,43,25,29.56,29.38,24,8,31,0.06
2013-8-24,80.0,69.6,59.0,53.2,48.5,44.0,72,48,31,29.71,29.45,25,8,25,0.21
2013-8-25,90.4,75.3,66.0,48.4,44.6,40.0,46,34,20,29.64,29.51,27,9,27,0.00
2013-8-26,84.7,75.8,70.2,49.5,45.6,42.0,44,34,26,29.60,29.50,31,8,31,0.00
2013-8-27,89.8,76.4,68.6,51.4,48.8,46.1,48,38,26,29.63,29.52,28,7,28,0.00
2013-8-28,83.7,75.3,69.0,52.7,49.2,46.5,45,40,33,29.62,29.49,31,10,31,0.00
2013-8-29,84.1,70.3,60.1,59.6,50.3,43.8,84,52,31,29.79,29.61,16,4,21,0.32
2013-8-30,88.8,72.3,56.5,54.0,47.7,38.3,82,46,18,29.74,29.59,25,4,25,0.00
2013-8-31,86.3,70.6,56.5,48.9,44.0,40.3,60,40,23,29.75,29.64,8,2,10,0.00
2013-9-1,90.4,68.4,50.6,48.4,42.6,38.2,69,42,22,29.76,29.63,9,2,11,0.00
2013-9-2,80.4,71.3,62.2,52.6,44.8,35.6,52,39,29,29.64,29.52,12,4,16,0.00
2013-9-3,92.0,75.8,68.4,52.1,49.6,45.5,56,41,24,29.69,29.58,17,7,22,0.01
2013-9-4,86.7,70.0,62.2,61.1,55.0,51.1,79,61,33,29.74,29.65,16,4,23,0.25
2013-9-5,90.2,74.3,64.5,58.8,53.9,50.8,66,50,31,29.74,29.58,9,2,13,0.00
2013-9-6,88.8,72.2,60.1,58.1,50.4,44.2,70,49,25,29.68,29.57,19,5,26,0.00
2013-9-7,82.7,73.3,59.8,55.9,51.2,45.6,75,47,33,29.65,29.54,13,5,19,0.00
2013-9-8,77.4,62.2,55.8,58.0,51.1,45.4,83,68,47,29.67,29.52,15,2,17,0.08
2013-9-9,74.4,62.4,52.4,48.8,42.5,39.5,69,50,30,29.76,29.59,15,6,24,0.00
2013-9-10,81.5,64.3,50.2,46.8,42.3,38.1,66,47,28,29.84,29.74,4,2,7,0.00
2013-9-11,81.8,66.2,52.8,47.3,44.2,41.2,68,47,28,29.96,29.82,5,1,8,0.00
2013-9-12,79.2,64.3,51.4,49.6,45.8,42.8,74,53,33,29.96,29.73,5,1,7,0.00
2013-9-13,73.5,63.4,52.9,51.9,46.6,42.5,82,55,41,29.73,29.49,13,2,15,0.05
2013-9-14,65.5,57.8,54.5,58.1,52.9,48.8,92,84,70,29.85,29.57,8,2,13,1.18
2013-9-15,60.7,55.5,51.3,55.3,51.4,48.8,92,86,78,29.91,29.74,3,1,6,0.10
2013-9-16,80.3,66.8,51.7,51.3,49.0,47.0,90,56,32,29.74,29.48,17,7,23,0.01
2013-9-17,71.2,61.1,52.0,53.7,46.3,39.2,82,60,33,29.53,29.31,31,6,31,0.49
2013-9-18,59.0,53.3,45.2,44.8,37.9,31.9,79,57,43,29.75,29.33,43,11,43,0.17
2013-9-19,62.2,53.1,44.8,38.2,33.3,29.5,66,48,34,29.92,29.75,23,5,23,0.00
2013-9-20,74.3,57.6,42.8,40.7,32.4,25.2,69,41,19,29.88,29.53,29,4,29,0.00
2013-9-21,78.7,69.4,54.8,39.1,34.9,28.3,43,28,23,29.54,29.22,30,8,30,0.00
2013-9-22,72.9,61.3,52.6,43.9,38.2,32.2,58,43,28,29.34,29.17,16,2,16,0.00
2013-9-23,63.4,56.9,49.9,39.6,33.6,31.0,67,42,31,29.64,29.33,34,11,34,0.00
2013-9-24,67.6,58.4,50.2,41.6,37.2,32.5,66,46,32,29.67,29.37,29,10,29,0.06
2013-9-25,57.4,45.7,39.8,39.5,36.9,34.3,90,72,43,29.50,29.33,17,2,17,0.28
2013-9-26,46.7,37.3,33.5,39.1,33.3,30.5,90,85,70,29.90,29.48,8,1,8,0.11
2013-9-27,48.9,39.6,32.1,35.4,28.9,21.8,90,69,40,29.90,29.78,24,4,24,0.20
2013-9-28,54.6,49.1,44.2,34.3,31.0,24.6,58,50,45,29.79,29.58,47,19,47,0.00
2013-9-29,56.2,54.4,52.0,38.9,35.2,29.9,57,48,39,29.61,29.33,56,21,56,0.00
2013-9-30,57.5,49.5,41.9,41.7,37.0,26.4,86,62,45,29.67,29.23,34,11,48,0.29
2013-10-1,57.1,50.5,44.0,36.1,30.6,23.9,60,47,40,29.75,29.64,42,10,42,0.00
2013-10-2,51.9,44.5,38.0,36.7,33.1,29.3,82,65,52,29.86,29.74,14,1,14,0.00
2013-10-3,42.2,33.0,29.4,34.7,29.1,-99.9,91,87,67,30.25,29.71,5,0,5,0.99
2013-10-4,48.4,32.8,27.8,31.0,26.2,20.1,91,78,47,30.44,30.25,14,1,14,0.12
2013-10-5,53.7,43.2,29.1,31.8,24.2,16.9,70,47,39,30.30,30.09,35,12,35,0.00
2013-10-6,62.6,54.4,46.5,31.3,28.7,25.9,50,38,29,30.10,29.82,48,17,48,0.00
2013-10-7,70.2,62.7,55.2,31.1,26.2,22.3,32,25,21,29.83,29.35,45,14,45,0.00
2013-10-8,60.4,49.0,36.2,35.5,29.1,21.8,75,48,26,29.74,29.35,22,4,22,0.00
2013-10-9,51.4,40.6,34.6,34.7,30.9,27.8,81,69,50,29.90,29.73,8,1,8,0.00
2013-10-10,58.6,43.5,33.0,40.8,34.6,28.9,92,72,50,29.73,29.53,19,1,19,0.01
2013-10-11,48.7,42.0,31.9,31.9,24.0,19.1,64,50,32,29.88,29.61,26,8,32,0.00
2013-10-12,48.1,36.8,28.5,34.4,27.2,19.1,87,69,51,30.03,29.88,12,1,17,0.03
2013-10-13,37.8,34.7,32.3,34.3,31.8,29.1,90,89,87,30.09,29.97,2,0,3,0.10
2013-10-14,37.4,33.1,31.1,32.1,29.8,28.0,91,88,80,30.35,30.09,3,0,5,0.86
2013-10-15,49.2,35.3,26.1,34.1,26.6,19.3,88,72,46,30.34,30.02,8,1,15,0.00
2013-10-16,46.9,40.1,32.6,29.9,23.0,16.7,87,51,39,30.03,29.89,18,8,28,0.00
2013-10-17,42.0,34.5,31.0,36.7,29.1,21.5,91,81,56,30.14,30.00,16,2,23,0.12
2013-10-18,50.0,42.3,32.3,25.4,21.6,17.9,61,44,34,30.15,29.86,16,9,27,0.00
2013-10-19,57.1,49.3,43.8,34.5,25.6,21.8,68,40,31,29.87,29.66,23,15,38,0.01
2013-10-20,51.7,43.1,35.9,35.5,31.1,25.7,88,64,42,29.93,29.77,9,3,10,0.17
2013-10-21,62.8,50.9,44.2,34.1,29.9,27.3,52,45,33,29.94,29.86,15,8,21,0.00
2013-10-22,69.6,55.5,46.7,38.7,28.8,23.4,46,37,23,29.91,29.78,17,8,23,0.00
2013-10-23,63.3,47.8,37.7,38.6,30.7,24.5,78,53,39,30.03,29.85,8,1,9,0.00
2013-10-24,62.5,43.9,31.5,41.3,33.3,27.6,86,68,41,30.07,29.96,3,1,6,0.00
2013-10-25,70.5,55.1,41.6,36.9,29.1,26.4,68,38,25,30.02,29.91,14,5,20,0.00
2013-10-26,66.1,55.2,41.3,29.0,26.0,23.1,56,33,23,30.02,29.73,16,8,27,0.00
2013-10-27,62.6,51.3,32.6,33.6,27.5,24.9,80,41,28,29.83,29.47,21,9,35,0.00
2013-10-28,32.3,23.7,19.1,26.8,20.0,15.9,96,86,80,30.10,29.83,2,1,4,0.24
2013-10-29,29.5,22.8,19.2,22.2,18.5,16.2,88,84,71,30.09,29.88,3,0,5,0.00
2013-10-30,48.0,37.6,24.5,35.0,26.2,21.4,89,67,43,29.88,29.71,16,5,22,0.00
2013-10-31,46.7,43.7,41.0,30.8,25.6,20.1,66,49,38,29.81,29.56,23,14,32,0.00
2013-11-1,48.4,43.0,38.1,25.3,23.0,19.1,58,45,36,29.99,29.80,21,11,34,0.00
2013-11-2,53.4,48.5,44.6,34.3,27.7,24.8,67,45,37,29.91,29.33,30,18,39,0.00
2013-11-3,44.0,34.9,31.3,34.5,19.9,12.1,84,56,37,29.76,29.32,20,9,27,0.10
2013-11-4,39.2,28.3,19.4,24.7,15.9,10.4,83,61,45,30.01,29.76,13,4,15,0.02
2013-11-5,34.6,28.8,20.4,14.4,10.8,7.8,67,47,37,30.05,29.98,27,15,40,0.00
2013-11-6,42.0,36.7,31.7,23.9,19.9,14.1,61,50,41,30.18,29.99,23,13,31,0.00
2013-11-7,49.2,43.4,31.9,33.9,27.9,19.3,68,55,46,30.16,29.47,24,13,34,0.00
2013-11-8,44.7,40.5,34.7,33.6,23.2,18.4,82,51,38,29.85,29.44,21,12,26,0.03
2013-11-9,46.8,39.1,32.4,26.5,23.8,21.3,68,54,42,30.03,29.84,18,5,25,0.00
2013-11-10,56.1,46.9,26.6,32.1,28.2,23.3,87,50,40,29.99,29.85,21,13,34,0.00
2013-11-11,40.8,31.5,25.8,31.1,26.5,22.9,90,82,67,30.42,29.99,2,0,4,0.00
2013-11-12,62.0,53.9,32.3,27.1,24.8,23.0,79,35,24,30.40,29.96,20,13,30,0.00
2013-11-13,57.1,51.4,40.5,30.3,26.2,20.3,50,38,28,29.96,29.71,17,10,27,0.00
2013-11-14,45.2,42.5,40.3,22.5,20.7,19.1,45,42,37,29.83,29.51,20,13,30,0.00
2013-11-15,40.6,37.9,34.1,20.6,17.7,15.3,57,44,37,29.51,29.17,25,16,36,0.00
2013-11-16,37.0,33.2,28.0,24.9,19.6,12.2,87,58,46,29.41,29.09,24,12,30,0.00
2013-11-17,38.0,33.0,27.9,18.6,14.7,9.6,55,47,40,29.85,29.40,18,13,28,0.00
2013-11-18,50.0,45.0,38.0,24.9,22.3,18.5,48,41,34,29.83,29.54,28,19,50,0.01
2013-11-19,49.1,46.9,44.3,29.2,27.0,24.3,51,46,39,29.54,29.36,24,17,44,0.00
2013-11-20,45.0,21.3,8.7,29.2,13.5,4.1,84,73,49,30.28,29.43,14,3,22,0.10
2013-11-21,26.8,14.1,2.2,14.8,5.2,-2.6,92,69,38,30.62,30.28,8,2,12,0.00
2013-11-22,39.5,27.5,19.5,15.9,7.0,0.6,63,43,27,30.57,30.50,12,4,18,0.00
2013-11-23,45.8,30.2,19.1,23.0,12.3,8.1,68,48,29,30.54,30.13,6,1,8,0.00
2013-11-24,54.8,44.7,35.5,24.7,15.4,7.1,43,31,23,30.13,29.86,10,4,14,0.00
2013-11-25,47.7,39.1,30.8,25.8,21.0,16.9,65,48,39,30.20,29.94,6,1,8,0.00
2013-11-26,51.8,46.3,39.7,24.3,21.7,19.5,46,38,30,30.20,29.86,24,12,34,0.00
2013-11-27,55.6,44.6,27.6,26.4,21.6,19.4,73,42,29,29.93,29.80,23,10,33,0.00
2013-11-28,53.5,39.1,23.5,27.5,20.6,16.9,79,53,29,29.98,29.90,17,6,28,0.00
2013-11-29,50.0,47.2,43.4,24.1,21.8,19.2,44,37,32,29.92,29.79,20,16,30,0.00
2013-11-30,45.9,43.2,41.6,25.5,24.3,22.7,52,47,43,29.95,29.86,19,14,30,0.00
2013-12-1,43.4,41.3,37.9,31.8,27.7,24.2,75,59,48,29.88,29.46,26,16,37,0.06
2013-12-2,47.5,37.2,15.3,34.0,28.2,11.6,89,72,48,29.55,29.25,19,8,25,0.48
2013-12-3,14.9,8.8,2.1,10.8,3.0,-2.9,86,77,59,30.19,29.54,4,1,5,0.07
2013-12-4,11.8,0.7,-6.5,1.2,-6.3,-12.8,79,72,56,30.36,30.19,2,0,3,0.02
2013-12-5,6.8,-6.2,-11.3,-4.2,-13.4,-17.2,84,71,55,30.52,30.34,1,0,3,0.00
2013-12-6,0.6,-11.2,-15.9,-11.4,-18.6,-22.5,86,69,55,30.66,30.51,1,0,1,0.00
2013-12-7,-7.7,-16.1,-20.2,-17.6,-23.2,-26.2,74,69,59,30.64,30.35,1,0,2,0.00
2013-12-8,12.7,4.0,-16.4,-0.6,-8.2,-22.7,86,57,43,30.35,30.23,18,6,28,0.00
2013-12-9,16.8,11.5,5.5,-0.2,-4.5,-11.8,58,48,41,30.24,30.06,34,25,52,0.04
2013-12-10,22.3,18.1,14.0,9.4,1.9,-3.6,77,49,42,30.30,30.01,35,20,48,0.06
2013-12-11,33.5,27.1,21.3,12.3,6.3,1.6,43,41,35,30.27,30.14,28,22,39,0.00
2013-12-12,41.9,36.7,30.7,16.7,14.4,10.9,44,40,35,30.19,29.82,28,20,41,0.00
2013-12-13,38.6,36.1,33.7,19.5,16.2,13.3,49,44,40,30.07,29.78,21,12,29,0.00
2013-12-14,41.5,36.9,34.0,21.9,17.6,15.2,50,45,42,30.08,29.95,27,21,40,0.00
2013-12-15,43.6,40.7,38.9,21.6,19.2,17.5,47,42,36,29.96,29.78,32,26,45,0.02
2013-12-16,51.7,42.9,36.9,19.5,17.9,15.2,45,37,26,30.07,29.79,35,20,50,0.02
2013-12-17,47.3,44.3,40.2,19.8,18.2,16.1,42,35,30,30.08,29.64,34,26,56,0.01
2013-12-18,45.9,42.3,28.0,23.2,19.7,17.6,81,42,32,29.65,29.47,29,16,45,0.00
2013-12-19,28.0,11.5,2.7,22.9,5.7,-2.6,86,77,59,30.03,29.55,5,0,10,0.00
2013-12-20,28.0,24.8,17.5,8.0,3.7,-4.6,62,40,25,29.97,29.46,28,18,39,0.00
2013-12-21,30.8,26.6,23.6,17.3,12.1,4.9,72,55,42,29.88,29.45,26,8,33,0.00
2013-12-22,30.7,18.7,10.9,18.5,11.6,6.5,86,74,50,30.23,29.83,13,3,20,0.00
2013-12-23,41.9,37.8,19.1,30.1,22.5,13.2,85,54,48,30.21,29.69,28,19,39,0.04
2013-12-24,35.2,33.1,30.0,30.3,15.1,10.8,87,48,41,30.22,29.79,21,12,33,0.02
2013-12-25,44.8,34.5,29.1,15.1,11.8,9.5,46,39,25,30.24,30.05,28,20,40,0.00
2013-12-26,51.3,42.7,33.8,27.2,21.3,13.6,50,42,38,30.12,29.95,25,18,36,0.00
2013-12-27,50.3,45.2,40.0,23.5,18.6,13.8,41,34,28,30.00,29.69,29,22,53,0.01
2013-12-28,45.0,28.6,16.1,24.8,14.8,10.7,84,60,29,30.19,29.66,24,7,32,0.00
2013-12-29,36.4,31.5,26.8,19.8,13.3,8.6,65,47,35,30.20,29.82,29,16,47,0.00
2013-12-30,38.2,35.8,31.7,21.5,18.1,16.5,64,48,42,30.05,29.78,28,16,45,0.00
2013-12-31,41.0,36.2,31.7,29.1,23.4,17.6,89,61,47,29.90,29.72,28,16,41,0.00
2014-1-1,36.3,32.5,26.0,26.2,18.4,12.1,84,57,39,30.22,29.89,20,8,25,0.05
2014-1-2,42.5,36.0,29.6,23.7,18.0,12.1,54,48,37,30.08,29.67,28,22,45,0.00